createdAt,value
2023-05-25T00:00:33.434Z,18.35
2023-05-25T00:03:21.147Z,18.75
2023-05-25T00:06:10.403Z,17.70
2023-05-25T00:08:43.659Z,21.05
2023-05-25T00:11:31.384Z,17.32
2023-05-25T00:14:05.178Z,18.00
2023-05-25T00:16:41.202Z,18.90
2023-05-25T00:19:15.106Z,19.37
2023-05-25T00:21:50.112Z,19.70
2023-05-25T00:24:38.077Z,18.35
2023-05-25T00:27:14.324Z,17.52
2023-05-25T00:29:48.332Z,19.55
2023-05-25T00:32:36.144Z,19.57
2023-05-25T00:35:23.886Z,19.57
2023-05-25T00:38:14.645Z,18.50
2023-05-25T00:40:48.312Z,19.35
2023-05-25T00:43:36.144Z,18.40
2023-05-25T00:46:24.464Z,18.23
2023-05-25T00:48:58.134Z,19.48
2023-05-25T00:51:47.735Z,19.00
2023-05-25T00:54:22.067Z,20.57
2023-05-25T00:57:12.233Z,19.45
2023-05-25T01:00:02.310Z,19.73
2023-05-25T01:02:36.647Z,20.15
2023-05-25T01:05:13.008Z,19.50
2023-05-25T01:08:03.611Z,17.80
2023-05-25T01:10:40.234Z,18.70
2023-05-25T01:13:31.013Z,19.85
2023-05-25T01:16:06.348Z,17.00
2023-05-25T01:18:56.032Z,19.07
2023-05-25T01:21:41.968Z,18.80
2023-05-25T01:24:35.616Z,19.75
2023-05-25T01:29:46.934Z,19.40
2023-05-25T01:32:37.499Z,20.10
2023-05-25T01:35:12.954Z,18.20
2023-05-25T01:38:01.329Z,20.48
2023-05-25T01:40:36.206Z,20.55
2023-05-25T01:43:26.883Z,20.97
2023-05-25T01:46:04.337Z,21.65
2023-05-25T01:48:57.518Z,20.82
2023-05-25T01:51:52.921Z,20.10
2023-05-25T01:54:30.915Z,23.67
2023-05-25T01:57:21.778Z,22.90
2023-05-25T01:59:59.759Z,23.27
2023-05-25T02:02:49.086Z,20.32
2023-05-25T02:05:23.290Z,22.37
2023-05-25T02:08:11.566Z,24.00
2023-05-25T02:10:45.288Z,22.62
2023-05-25T02:13:33.413Z,23.70
2023-05-25T02:16:08.347Z,22.93
2023-05-25T02:18:58.291Z,21.68
2023-05-25T02:21:32.800Z,23.30
2023-05-25T02:24:20.842Z,22.58
2023-05-25T02:26:56.010Z,23.90
2023-05-25T02:29:43.916Z,25.20
2023-05-25T02:32:17.841Z,26.12
2023-05-25T02:35:06.643Z,23.60
2023-05-25T02:37:40.729Z,22.73
2023-05-25T02:40:28.690Z,22.27
2023-05-25T02:43:02.288Z,22.00
2023-05-25T02:45:50.619Z,23.05
2023-05-25T02:48:24.423Z,22.73
2023-05-25T02:51:12.634Z,22.10
2023-05-25T02:54:01.912Z,22.90
2023-05-25T02:56:37.799Z,25.20
2023-05-25T02:59:26.205Z,26.42
2023-05-25T03:02:00.221Z,24.43
2023-05-25T03:04:49.954Z,26.33
2023-05-25T03:07:26.637Z,24.47
2023-05-25T03:10:16.080Z,23.02
2023-05-25T03:12:51.317Z,24.47
2023-05-25T03:15:41.273Z,24.82
2023-05-25T03:18:15.022Z,27.13
2023-05-25T03:21:06.084Z,24.40
2023-05-25T03:26:30.860Z,25.48
2023-05-25T03:29:07.733Z,26.52
2023-05-25T03:31:56.446Z,24.87
2023-05-25T03:34:33.784Z,25.23
2023-05-25T03:37:23.548Z,25.65
2023-05-25T03:39:58.281Z,24.57
2023-05-25T03:42:48.278Z,24.67
2023-05-25T03:45:22.548Z,23.85
2023-05-25T03:48:11.140Z,25.15
2023-05-25T03:50:45.128Z,23.02
2023-05-25T03:53:33.498Z,22.20
2023-05-25T03:56:08.569Z,24.20
2023-05-25T03:58:57.416Z,24.25
2023-05-25T04:01:32.403Z,21.82
2023-05-25T04:04:25.359Z,23.15
2023-05-25T04:06:59.291Z,23.95
2023-05-25T04:09:47.732Z,24.82
2023-05-25T04:12:22.808Z,24.25
2023-05-25T04:15:14.227Z,21.25
2023-05-25T04:17:50.200Z,23.92
2023-05-25T04:20:24.355Z,22.67
2023-05-25T04:23:12.934Z,21.65
2023-05-25T04:25:50.694Z,21.42
2023-05-25T04:28:41.689Z,22.77
2023-05-25T04:31:37.185Z,20.02
2023-05-25T04:34:36.360Z,19.45
2023-05-25T04:37:18.389Z,18.40
2023-05-25T04:40:11.717Z,20.65
2023-05-25T04:42:46.218Z,19.70
2023-05-25T04:45:35.628Z,17.67
2023-05-25T04:48:10.652Z,17.37
2023-05-25T04:51:00.625Z,17.27
2023-05-25T04:53:35.722Z,17.60
2023-05-25T04:56:25.924Z,18.60
2023-05-25T04:59:00.002Z,18.32
2023-05-25T05:01:48.908Z,17.70
2023-05-25T05:04:24.138Z,18.32
2023-05-25T05:07:13.567Z,16.55
2023-05-25T05:09:47.403Z,15.10
2023-05-25T05:12:54.967Z,16.00
2023-05-25T05:15:28.801Z,15.43
2023-05-25T05:18:04.226Z,16.17
2023-05-25T05:20:38.942Z,15.32
2023-05-25T05:23:18.451Z,15.03
2023-05-25T05:25:52.713Z,15.35
2023-05-25T05:28:27.649Z,14.53
2023-05-25T05:31:01.886Z,14.70
2023-05-25T05:33:50.341Z,15.10
2023-05-25T05:36:25.361Z,15.43
2023-05-25T05:38:59.134Z,15.88
2023-05-25T05:41:34.937Z,15.98
2023-05-25T05:44:08.803Z,16.52
2023-05-25T05:46:42.916Z,15.20
2023-05-25T05:49:16.774Z,16.20
2023-05-25T05:51:50.701Z,15.15
2023-05-25T05:54:24.668Z,15.48
2023-05-25T05:56:59.087Z,14.55
2023-05-25T05:59:48.998Z,15.13
2023-05-25T06:02:56.617Z,13.08
2023-05-25T06:05:32.281Z,13.43
2023-05-25T06:08:08.532Z,13.58
2023-05-25T06:10:43.435Z,13.28
2023-05-25T06:13:17.140Z,12.43
2023-05-25T06:15:50.995Z,13.88
2023-05-25T06:18:41.419Z,13.13
2023-05-25T06:21:17.140Z,12.98
2023-05-25T06:23:50.492Z,14.80
2023-05-25T06:26:25.077Z,15.20
2023-05-25T06:28:59.073Z,14.95
2023-05-25T06:31:32.690Z,15.00
2023-05-25T06:34:06.574Z,16.55
2023-05-25T06:36:41.825Z,16.45
2023-05-25T06:39:16.507Z,15.18
2023-05-25T06:41:51.253Z,14.18
2023-05-25T06:44:40.529Z,15.03
2023-05-25T06:47:14.601Z,15.48
2023-05-25T06:49:48.663Z,14.80
2023-05-25T06:52:22.805Z,17.20
2023-05-25T06:54:56.748Z,15.38
2023-05-25T06:57:30.841Z,14.93
2023-05-25T07:00:07.153Z,16.67
2023-05-25T07:02:41.146Z,16.17
2023-05-25T07:05:15.369Z,15.58
2023-05-25T07:07:48.918Z,16.57
2023-05-25T07:10:22.706Z,14.75
2023-05-25T07:12:56.658Z,14.58
2023-05-25T07:15:30.651Z,15.18
2023-05-25T07:18:04.286Z,15.65
2023-05-25T07:20:38.397Z,15.95
2023-05-25T07:23:12.522Z,16.48
2023-05-25T07:25:47.090Z,13.55
2023-05-25T07:28:21.035Z,15.00
2023-05-25T07:31:12.778Z,15.32
2023-05-25T07:33:46.703Z,15.55
2023-05-25T07:36:34.702Z,15.58
2023-05-25T07:39:08.767Z,15.85
2023-05-25T07:41:42.961Z,16.60
2023-05-25T07:44:16.600Z,16.02
2023-05-25T07:47:03.271Z,15.35
2023-05-25T07:49:51.262Z,16.27
2023-05-25T07:52:26.240Z,15.55
2023-05-25T07:55:00.045Z,16.55
2023-05-25T07:57:34.830Z,15.90
2023-05-25T08:00:11.309Z,14.18
2023-05-25T08:02:48.005Z,15.75
2023-05-25T08:05:22.204Z,16.45
2023-05-25T08:07:56.802Z,14.45
2023-05-25T08:10:45.876Z,15.35
2023-05-25T08:13:19.842Z,15.60
2023-05-25T08:15:53.965Z,15.20
2023-05-25T08:18:27.363Z,15.48
2023-05-25T08:21:15.650Z,14.38
2023-05-25T08:23:50.894Z,16.15
2023-05-25T08:26:41.193Z,14.60
2023-05-25T08:29:16.319Z,16.10
2023-05-25T08:31:50.798Z,16.23
2023-05-25T08:34:24.672Z,16.62
2023-05-25T08:36:59.339Z,16.02
2023-05-25T08:39:49.693Z,14.58
2023-05-25T08:42:26.248Z,15.65
2023-05-25T08:45:30.422Z,15.72
2023-05-25T08:47:52.909Z,14.18
2023-05-25T08:50:42.861Z,15.08
2023-05-25T08:53:18.180Z,15.55
2023-05-25T08:56:10.076Z,14.53
2023-05-25T08:58:46.895Z,13.10
2023-05-25T09:01:38.849Z,14.90
2023-05-25T09:04:15.082Z,16.85
2023-05-25T09:07:10.189Z,15.93
2023-05-25T09:09:53.566Z,15.88
2023-05-25T09:12:28.722Z,16.15
2023-05-25T09:15:02.595Z,15.00
2023-05-25T09:17:50.398Z,16.80
2023-05-25T09:20:27.195Z,15.28
2023-05-25T09:23:15.561Z,14.83
2023-05-25T09:25:52.372Z,16.80
2023-05-25T09:28:47.845Z,16.00
2023-05-25T09:31:21.715Z,17.00
2023-05-25T09:34:15.277Z,15.85
2023-05-25T09:36:49.214Z,16.10
2023-05-25T09:39:39.227Z,16.37
2023-05-25T09:42:13.968Z,15.78
2023-05-25T09:45:01.967Z,15.65
2023-05-25T09:47:38.821Z,16.52
2023-05-25T09:50:28.381Z,18.12
2023-05-25T09:53:04.343Z,18.40
2023-05-25T09:55:52.365Z,18.67
2023-05-25T09:58:29.602Z,19.82
2023-05-25T10:01:04.728Z,19.17
2023-05-25T10:04:03.473Z,20.12
2023-05-25T10:06:29.724Z,18.90
2023-05-25T10:09:19.722Z,20.43
2023-05-25T10:11:56.095Z,21.57
2023-05-25T10:14:31.588Z,22.90
2023-05-25T10:17:08.709Z,22.58
2023-05-25T10:20:01.676Z,23.50
2023-05-25T10:22:39.927Z,22.75
2023-05-25T10:25:17.556Z,23.42
2023-05-25T10:28:08.779Z,25.12
2023-05-25T10:30:44.498Z,24.92
2023-05-25T10:33:33.760Z,25.60
2023-05-25T10:38:49.114Z,25.25
2023-05-25T10:41:24.188Z,25.08
2023-05-25T10:44:13.777Z,24.75
2023-05-25T10:47:03.385Z,24.70
2023-05-25T10:49:39.304Z,22.50
2023-05-25T10:52:31.650Z,23.77
2023-05-25T10:55:05.937Z,22.98
2023-05-25T10:57:40.707Z,23.52
2023-05-25T11:00:30.011Z,22.82
2023-05-25T11:03:03.971Z,21.73
2023-05-25T11:05:53.400Z,21.55
2023-05-25T11:08:28.683Z,22.25
2023-05-25T11:11:17.371Z,21.48
2023-05-25T11:13:51.857Z,20.70
2023-05-25T11:16:27.700Z,21.60
2023-05-25T11:19:18.549Z,22.67
2023-05-25T11:21:55.671Z,19.07
2023-05-25T11:24:31.420Z,21.17
2023-05-25T11:27:24.839Z,23.38
2023-05-25T11:29:59.578Z,21.95
2023-05-25T11:32:52.151Z,21.75
2023-05-25T11:35:27.222Z,21.52
2023-05-25T11:38:01.497Z,22.10
2023-05-25T11:40:49.797Z,22.20
2023-05-25T11:43:25.436Z,21.35
2023-05-25T11:46:00.669Z,19.27
2023-05-25T11:48:34.491Z,19.80
2023-05-25T11:51:25.148Z,19.65
2023-05-25T11:53:59.171Z,20.25
2023-05-25T11:56:35.960Z,20.02
2023-05-25T11:59:24.762Z,18.55
2023-05-25T12:02:03.701Z,20.68
2023-05-25T12:04:39.286Z,20.12
2023-05-25T12:07:13.282Z,20.27
2023-05-25T12:10:12.102Z,19.95
2023-05-25T12:12:47.146Z,20.68
2023-05-25T12:15:24.256Z,20.90
2023-05-25T12:17:58.911Z,19.95
2023-05-25T12:20:47.210Z,19.65
2023-05-25T12:23:21.272Z,20.02
2023-05-25T12:26:12.345Z,20.85
2023-05-25T12:29:02.113Z,20.25
2023-05-25T12:31:50.109Z,23.02
2023-05-25T12:34:26.904Z,21.10
2023-05-25T12:37:01.624Z,22.45
2023-05-25T12:39:50.774Z,25.00
2023-05-25T12:42:27.781Z,23.02
2023-05-25T12:45:17.389Z,25.50
2023-05-25T12:47:51.465Z,23.50
2023-05-25T12:50:26.007Z,23.12
2023-05-25T12:53:20.011Z,22.87
2023-05-25T12:56:03.635Z,23.00
2023-05-25T12:58:37.364Z,23.95
2023-05-25T13:01:26.289Z,23.83
2023-05-25T13:04:00.056Z,24.95
2023-05-25T13:06:36.117Z,24.27
2023-05-25T13:09:10.641Z,25.30
2023-05-25T13:12:00.729Z,25.37
2023-05-25T13:14:34.833Z,26.62
2023-05-25T13:17:09.232Z,24.00
2023-05-25T13:19:57.675Z,23.70
2023-05-25T13:22:32.195Z,23.27
2023-05-25T13:25:06.873Z,23.85
2023-05-25T13:27:57.097Z,22.60
2023-05-25T13:30:31.172Z,22.77
2023-05-25T13:33:19.318Z,23.10
2023-05-25T13:35:59.294Z,21.95
2023-05-25T13:38:33.447Z,20.80
2023-05-25T13:41:22.785Z,19.50
2023-05-25T13:43:56.613Z,19.73
2023-05-25T13:46:35.065Z,19.20
2023-05-25T13:49:20.176Z,19.80
2023-05-25T13:51:57.030Z,19.25
2023-05-25T13:54:44.944Z,18.17
2023-05-25T13:57:18.783Z,18.35
2023-05-25T14:00:08.640Z,18.75
2023-05-25T14:02:42.464Z,20.17
2023-05-25T14:05:16.666Z,18.45
2023-05-25T14:07:53.028Z,19.32
2023-05-25T14:10:43.645Z,18.70
2023-05-25T14:13:18.494Z,16.65
2023-05-25T14:15:53.175Z,16.25
2023-05-25T14:18:41.262Z,16.17
2023-05-25T14:21:14.874Z,16.30
2023-05-25T14:24:02.792Z,16.90
2023-05-25T14:26:36.546Z,14.75
2023-05-25T14:29:24.209Z,14.45
2023-05-25T14:31:58.010Z,14.10
2023-05-25T14:34:46.609Z,14.03
2023-05-25T14:37:20.399Z,14.75
2023-05-25T14:40:11.502Z,12.68
2023-05-25T14:42:47.680Z,12.95
2023-05-25T14:45:22.444Z,11.55
2023-05-25T14:51:02.949Z,10.63
2023-05-25T14:53:36.808Z,11.85
2023-05-25T14:56:11.256Z,10.93
2023-05-25T14:58:59.247Z,9.78
2023-05-25T15:01:34.459Z,10.15
2023-05-25T15:04:21.846Z,10.38
2023-05-25T15:06:55.688Z,10.32
2023-05-25T15:09:45.450Z,9.78
2023-05-25T15:12:19.350Z,10.28
2023-05-25T15:14:53.063Z,11.15
2023-05-25T15:17:26.792Z,11.20
2023-05-25T15:20:15.570Z,10.28
2023-05-25T15:22:50.946Z,9.53
2023-05-25T15:28:14.573Z,8.85
2023-05-25T15:30:48.512Z,9.80
2023-05-25T15:33:51.474Z,8.68
2023-05-25T15:38:47.024Z,9.50
2023-05-25T15:41:35.167Z,9.23
2023-05-25T15:44:12.970Z,8.95
2023-05-25T15:47:02.435Z,8.33
2023-05-25T15:49:37.362Z,8.10
2023-05-25T15:52:25.282Z,9.35
2023-05-25T15:54:59.237Z,9.10
2023-05-25T15:57:34.467Z,9.20
2023-05-25T16:02:58.436Z,8.23
2023-05-25T16:05:46.646Z,9.08
2023-05-25T16:08:20.580Z,8.98
2023-05-25T16:11:14.450Z,8.65
2023-05-25T16:13:48.857Z,8.53
2023-05-25T16:16:24.443Z,9.30
2023-05-25T16:19:04.721Z,8.68
2023-05-25T16:21:52.609Z,8.80
2023-05-25T16:24:27.463Z,8.75
2023-05-25T16:27:02.911Z,10.30
2023-05-25T16:29:51.124Z,9.38
2023-05-25T16:32:29.797Z,10.53
2023-05-25T16:35:03.548Z,9.13
2023-05-25T16:37:37.134Z,10.78
2023-05-25T16:40:24.930Z,10.68
2023-05-25T16:42:58.759Z,10.48
2023-05-25T16:45:46.822Z,9.85
2023-05-25T16:48:25.567Z,10.30
2023-05-25T16:51:15.500Z,10.60
2023-05-25T16:53:49.642Z,11.63
2023-05-25T16:56:38.580Z,10.05
2023-05-25T16:59:12.361Z,10.93
2023-05-25T17:02:00.870Z,11.80
2023-05-25T17:04:34.901Z,11.63
2023-05-25T17:07:22.649Z,11.90
2023-05-25T17:09:59.250Z,12.03
2023-05-25T17:12:47.594Z,12.65
2023-05-25T17:15:21.853Z,12.85
2023-05-25T17:18:10.010Z,13.72
2023-05-25T17:20:46.918Z,12.65
2023-05-25T17:23:34.862Z,12.90
2023-05-25T17:26:08.912Z,13.35
2023-05-25T17:28:59.352Z,16.80
2023-05-25T17:31:33.500Z,12.85
2023-05-25T17:34:21.438Z,14.35
2023-05-25T17:36:55.209Z,13.38
2023-05-25T17:39:43.320Z,13.38
2023-05-25T17:42:17.673Z,14.15
2023-05-25T17:45:07.626Z,17.62
2023-05-25T17:50:47.754Z,16.35
2023-05-25T17:53:23.632Z,14.87
2023-05-25T17:56:12.263Z,14.13
2023-05-25T17:58:47.858Z,15.70
2023-05-25T18:01:36.849Z,16.62
2023-05-25T18:04:11.339Z,15.00
2023-05-25T18:06:59.468Z,16.07
2023-05-25T18:09:34.254Z,15.78
2023-05-25T18:12:22.064Z,14.47
2023-05-25T18:14:55.898Z,15.58
2023-05-25T18:20:16.977Z,14.78
2023-05-25T18:23:06.628Z,15.53
2023-05-25T18:25:43.341Z,14.45
2023-05-25T18:28:33.116Z,14.55
2023-05-25T18:31:08.943Z,16.20
2023-05-25T18:34:00.411Z,16.35
2023-05-25T18:36:34.967Z,15.13
2023-05-25T18:39:23.060Z,16.57
2023-05-25T18:42:12.212Z,16.60
2023-05-25T18:45:00.519Z,16.10
2023-05-25T18:47:48.688Z,15.03
2023-05-25T18:50:39.691Z,17.12
2023-05-25T18:53:14.604Z,16.30
2023-05-25T18:56:02.772Z,17.20
2023-05-25T18:58:36.607Z,17.27
2023-05-25T19:01:24.516Z,17.05
2023-05-25T19:03:59.608Z,15.68
2023-05-25T19:06:49.635Z,17.37
2023-05-25T19:09:23.230Z,17.07
2023-05-25T19:12:11.513Z,16.12
2023-05-25T19:14:45.444Z,15.53
2023-05-25T19:17:34.256Z,16.52
2023-05-25T19:20:09.910Z,18.00
2023-05-25T19:22:58.046Z,19.40
2023-05-25T19:25:32.060Z,18.70
2023-05-25T19:28:20.435Z,19.85
2023-05-25T19:30:54.353Z,19.77
2023-05-25T19:33:48.197Z,22.40
2023-05-25T19:36:23.870Z,20.15
2023-05-25T19:39:15.039Z,20.52
2023-05-25T19:41:49.057Z,19.70
2023-05-25T19:44:37.443Z,21.30
2023-05-25T19:47:11.321Z,20.10
2023-05-25T19:49:59.372Z,20.72
2023-05-25T19:52:34.737Z,20.02
2023-05-25T19:55:22.768Z,20.02
2023-05-25T19:57:58.534Z,19.73
2023-05-25T20:00:46.686Z,18.30
2023-05-25T20:03:42.665Z,20.65
2023-05-25T20:10:11.076Z,20.30
2023-05-25T20:12:45.545Z,20.08
2023-05-25T20:15:34.446Z,19.32
2023-05-25T20:18:08.580Z,19.80
2023-05-25T20:20:56.747Z,20.45
2023-05-25T20:23:31.442Z,20.95
2023-05-25T20:26:19.756Z,20.00
2023-05-25T20:28:53.489Z,18.02
2023-05-25T20:31:41.677Z,21.50
2023-05-25T20:34:16.040Z,20.25
2023-05-25T20:37:04.190Z,20.40
2023-05-25T20:39:40.596Z,19.85
2023-05-25T20:42:30.408Z,22.13
2023-05-25T20:45:06.543Z,21.93
2023-05-25T20:48:04.857Z,20.20
2023-05-25T20:50:38.789Z,20.55
2023-05-25T20:53:26.590Z,25.68
2023-05-25T20:56:02.558Z,25.12
2023-05-25T20:58:37.590Z,21.77
2023-05-25T21:01:25.598Z,21.23
2023-05-25T21:04:02.436Z,20.97
2023-05-25T21:06:39.447Z,24.30
2023-05-25T21:09:17.001Z,24.10
2023-05-25T21:12:42.448Z,23.30
2023-05-25T21:15:28.663Z,28.77
2023-05-25T21:18:37.475Z,24.57
2023-05-25T21:21:37.017Z,25.40
2023-05-25T21:24:14.727Z,24.23
2023-05-25T21:26:54.212Z,24.90
2023-05-25T21:29:46.253Z,42.93
2023-05-25T21:32:22.888Z,41.02
2023-05-25T21:35:17.869Z,66.02
2023-05-25T21:37:52.256Z,65.97
2023-05-25T21:40:39.943Z,28.95
2023-05-25T21:43:13.602Z,20.90
2023-05-25T21:45:47.611Z,22.75
2023-05-25T21:48:22.461Z,23.18
2023-05-25T21:51:10.137Z,24.20
2023-05-25T21:53:43.626Z,25.17
2023-05-25T21:56:32.256Z,25.85
2023-05-25T21:59:06.355Z,26.40
2023-05-25T22:02:13.755Z,23.67
2023-05-25T22:04:47.305Z,23.02
2023-05-25T22:07:35.463Z,20.80
2023-05-25T22:10:11.351Z,23.62
2023-05-25T22:13:00.780Z,22.15
2023-05-25T22:15:35.091Z,24.87
2023-05-25T22:18:22.867Z,22.55
2023-05-25T22:20:56.699Z,21.97
2023-05-25T22:23:44.774Z,26.02
2023-05-25T22:26:20.020Z,25.25
2023-05-25T22:28:53.832Z,24.92
2023-05-25T22:31:42.311Z,25.62
2023-05-25T22:34:16.312Z,24.75
2023-05-25T22:37:04.443Z,24.92
2023-05-25T22:39:38.526Z,24.05
2023-05-25T22:42:27.031Z,24.23
2023-05-25T22:45:00.856Z,24.45
2023-05-25T22:47:35.061Z,23.70
2023-05-25T22:50:23.000Z,25.45
2023-05-25T22:52:56.712Z,26.50
2023-05-25T22:55:47.203Z,30.88
2023-05-25T22:58:19.930Z,35.70
2023-05-25T23:01:07.712Z,33.70
2023-05-25T23:03:41.952Z,27.32
2023-05-25T23:06:29.894Z,32.33
2023-05-25T23:09:03.655Z,30.45
2023-05-25T23:11:51.563Z,31.65
2023-05-25T23:14:26.628Z,31.60
2023-05-25T23:17:14.675Z,27.70
2023-05-25T23:19:48.295Z,22.52
2023-05-25T23:22:36.174Z,22.35
2023-05-25T23:25:11.741Z,21.82
2023-05-25T23:27:45.633Z,20.45
2023-05-25T23:30:34.870Z,22.50
2023-05-25T23:33:10.611Z,22.87
2023-05-25T23:35:58.654Z,22.77
2023-05-25T23:38:33.239Z,23.67
2023-05-25T23:41:22.138Z,23.77
2023-05-25T23:43:56.386Z,22.00
2023-05-25T23:46:44.853Z,25.72
2023-05-25T23:49:18.756Z,22.30
2023-05-25T23:52:06.915Z,20.70
2023-05-25T23:54:40.866Z,24.00
2023-05-25T23:57:14.886Z,24.40
